Time;durP1;ratioP1;P1;durP2;ratioP2;P2;SDS_P1;SDS_P2;PMS_P1;PMS_P2;Temp;Humidity;BMP_temperature;BMP_pressure;BME280_temperature;BME280_humidity;BME280_pressure;Samples;Min_cycle;Max_cycle;Signal;HPM_P1;HPM_P2
2022/12/11 00:00:40;;;;;;;65.77;35.43;;;;;;;3.25;64.63;99383.75;4972595;28;98188;-83
2022/12/11 00:03:06;;;;;;;62.13;33.97;;;;;;;3.23;64.68;99374.28;4939635;28;96987;-82
2022/12/11 00:05:32;;;;;;;64.30;34.60;;;;;;;3.22;64.85;99376.03;4985975;28;97151;-83
2022/12/11 00:07:57;;;;;;;66.67;34.90;;;;;;;3.32;64.70;99387.97;4954637;28;101211;-82
2022/12/11 00:10:23;;;;;;;69.43;36.90;;;;;;;3.31;64.76;99378.44;4971076;28;98044;-82
2022/12/11 00:12:49;;;;;;;62.93;35.37;;;;;;;3.25;64.56;99375.97;4956264;28;96735;-81
2022/12/11 00:15:14;;;;;;;69.67;37.27;;;;;;;3.33;64.63;99388.81;4939231;28;96955;-82
2022/12/11 00:17:40;;;;;;;63.20;34.70;;;;;;;3.30;64.28;99386.28;4956394;28;98493;-82
2022/12/11 00:20:06;;;;;;;67.70;36.67;;;;;;;3.29;64.54;99382.84;4956364;28;101701;-82
2022/12/11 00:22:32;;;;;;;65.97;35.97;;;;;;;3.23;65.00;99366.50;4934422;28;96824;-82
2022/12/11 00:24:58;;;;;;;59.00;33.07;;;;;;;3.23;64.83;99372.56;4958054;28;97792;-82
2022/12/11 00:27:23;;;;;;;68.00;35.83;;;;;;;3.30;64.86;99383.69;4936055;28;101644;-81
2022/12/11 00:29:49;;;;;;;61.77;36.10;;;;;;;3.30;64.56;99389.72;4951866;28;101801;-82
2022/12/11 00:32:14;;;;;;;64.50;36.87;;;;;;;3.22;64.65;99381.22;4945273;28;97230;-82
2022/12/11 00:34:40;;;;;;;63.90;35.53;;;;;;;3.20;64.53;99377.81;4968974;28;97423;-82
2022/12/11 00:37:05;;;;;;;66.07;35.30;;;;;;;3.11;64.63;99365.00;4957765;28;101694;-82
2022/12/11 00:39:31;;;;;;;70.93;36.97;;;;;;;3.30;64.58;99399.25;4955480;28;98036;-82
2022/12/11 00:41:57;;;;;;;61.60;35.27;;;;;;;3.17;64.60;99377.84;4952203;28;97302;-82
2022/12/11 00:44:22;;;;;;;66.17;35.93;;;;;;;3.23;64.69;99387.25;4955839;28;96842;-82
2022/12/11 00:46:48;;;;;;;63.30;35.53;;;;;;;3.20;64.58;99398.56;4955223;28;101383;-82
2022/12/11 00:49:14;;;;;;;65.27;35.57;;;;;;;3.24;64.57;99401.97;4956290;28;101055;-83
2022/12/11 00:51:39;;;;;;;62.83;34.87;;;;;;;3.28;64.65;99398.41;4972174;28;97170;-82
2022/12/11 00:54:05;;;;;;;64.10;36.47;;;;;;;3.24;65.14;99391.59;4937043;28;97181;-82
2022/12/11 00:56:32;;;;;;;67.03;35.23;;;;;;;3.26;64.92;99385.47;4965777;28;101512;-82
2022/12/11 00:58:58;;;;;;;63.40;35.23;;;;;;;3.22;64.51;99375.19;4949489;28;101407;-82
2022/12/11 01:01:24;;;;;;;67.07;35.27;;;;;;;3.26;64.40;99382.00;4952883;28;96858;-83
2022/12/11 01:03:51;;;;;;;67.10;35.30;;;;;;;3.12;64.39;99356.34;4977098;28;97310;-82
2022/12/11 01:06:20;;;;;;;62.40;34.07;;;;;;;3.23;64.48;99379.47;4949506;28;101192;-82
2022/12/11 01:08:46;;;;;;;65.43;35.40;;;;;;;3.18;64.30;99374.41;4963747;28;101932;-81
2022/12/11 01:11:14;;;;;;;60.70;33.47;;;;;;;3.23;64.66;99388.13;4953195;28;96768;-83
2022/12/11 01:13:40;;;;;;;60.53;33.63;;;;;;;3.25;64.44;99394.13;4959352;28;96885;-82
2022/12/11 01:16:07;;;;;;;65.93;34.93;;;;;;;3.21;64.20;99396.81;4954652;28;101588;-82
2022/12/11 01:18:32;;;;;;;65.70;35.40;;;;;;;3.22;64.57;99399.38;4972100;28;100768;-82
2022/12/11 01:20:58;;;;;;;59.60;31.97;;;;;;;3.16;64.31;99396.91;4955276;28;97362;-83
2022/12/11 01:23:23;;;;;;;64.73;35.97;;;;;;;3.14;64.76;99406.44;4952682;28;96857;-81
2022/12/11 01:25:49;;;;;;;62.73;35.07;;;;;;;3.21;64.66;99409.78;4955217;28;98062;-83
2022/12/11 01:28:14;;;;;;;63.17;33.87;;;;;;;3.14;64.69;99398.66;4955967;28;100480;-83
2022/12/11 01:30:42;;;;;;;58.10;33.93;;;;;;;3.20;64.52;99403.75;4970966;28;97293;-83
2022/12/11 01:33:08;;;;;;;66.00;34.70;;;;;;;3.07;64.49;99381.50;4937933;28;97311;-83
2022/12/11 01:35:33;;;;;;;60.63;33.33;;;;;;;3.14;64.59;99399.53;4954211;28;101682;-82
2022/12/11 01:37:59;;;;;;;56.50;32.93;;;;;;;3.21;64.63;99409.78;4971661;28;98406;-82
2022/12/11 01:40:25;;;;;;;57.47;33.20;;;;;;;3.08;64.28;99394.44;4955849;28;97046;-81
2022/12/11 01:42:50;;;;;;;62.37;33.50;;;;;;;3.11;64.19;99393.53;4971561;28;97276;-82
2022/12/11 01:45:27;;;;;;;59.20;33.83;;;;;;;3.17;64.91;99409.84;4955397;28;101710;-81
2022/12/11 01:48:01;;;;;;;56.80;32.67;;;;;;;3.08;64.51;99391.00;4947189;28;101238;-82
2022/12/11 01:50:28;;;;;;;56.33;31.77;;;;;;;3.03;64.57;99388.50;4972385;28;96772;-82
2022/12/11 01:52:53;;;;;;;58.10;32.43;;;;;;;3.16;64.70;99402.09;4939203;28;96944;-83
2022/12/11 01:55:19;;;;;;;60.80;32.40;;;;;;;3.11;64.82;99393.53;4954495;28;101687;-83
2022/12/11 01:57:47;;;;;;;59.00;31.37;;;;;;;3.06;64.22;99375.47;4954932;28;101358;-82
2022/12/11 02:00:13;;;;;;;56.20;32.73;;;;;;;3.12;64.81;99388.34;4955106;28;97255;-83
2022/12/11 02:02:39;;;;;;;54.93;29.93;;;;;;;3.12;64.53;99377.97;4971609;28;96829;-82
2022/12/11 02:05:05;;;;;;;58.20;32.03;;;;;;;3.17;64.50;99372.66;4946406;28;102163;-82
2022/12/11 02:07:37;;;;;;;51.30;30.40;;;;;;;3.18;64.27;99370.06;4954224;28;101297;-81
2022/12/11 02:10:03;;;;;;;;;;;;;;;3.12;64.56;99366.72;4955707;28;97215;-81
2022/12/11 02:12:47;;;;;;;58.13;30.53;;;;;;;3.13;64.78;99360.66;4967311;28;97085;-82
2022/12/11 02:15:18;;;;;;;53.30;30.80;;;;;;;3.13;64.46;99358.06;4951963;28;98380;-82
2022/12/11 02:17:49;;;;;;;57.03;32.27;;;;;;;3.09;64.36;99348.63;4948650;28;101536;-82
2022/12/11 02:20:44;;;;;;;54.80;30.90;;;;;;;3.14;64.26;99351.97;4962041;28;97449;-81
2022/12/11 02:23:38;;;;;;;52.67;30.37;;;;;;;3.14;64.39;99345.06;4935789;28;96972;-82
2022/12/11 02:26:13;;;;;;;51.73;29.03;;;;;;;3.10;64.27;99338.22;4963782;28;97999;-81
2022/12/11 02:28:44;;;;;;;45.87;28.40;;;;;;;2.90;64.31;99304.91;4971011;28;97845;-82
2022/12/11 02:31:31;;;;;;;58.35;30.33;;;;;;;3.10;64.12;99345.16;4938630;28;97346;-82
2022/12/11 02:34:17;;;;;;;50.90;28.43;;;;;;;3.05;64.18;99349.56;4972874;28;96754;-81
2022/12/11 02:36:46;;;;;;;49.53;29.03;;;;;;;3.04;64.38;99350.47;4951620;28;101468;-82
2022/12/11 02:39:13;;;;;;;52.37;29.87;;;;;;;2.96;64.00;99342.81;4954194;28;100199;-81
2022/12/11 02:41:49;;;;;;;47.27;28.03;;;;;;;2.95;64.22;99331.59;4955154;28;97347;-82
2022/12/11 02:44:18;;;;;;;49.77;27.50;;;;;;;3.10;64.13;99353.78;4954809;28;97314;-81
2022/12/11 02:46:44;;;;;;;46.37;27.93;;;;;;;3.08;63.86;99350.34;4954310;28;97302;-81
2022/12/11 02:49:11;;;;;;;48.60;28.40;;;;;;;3.10;64.13;99361.56;4954547;28;100091;-82
2022/12/11 02:51:39;;;;;;;49.00;27.20;;;;;;;3.05;63.39;99347.81;4953054;28;96773;-82
2022/12/11 02:54:08;;;;;;;50.53;27.63;;;;;;;2.97;64.03;99331.56;4971019;28;97463;-81
2022/12/11 02:56:54;;;;;;;49.63;26.63;;;;;;;3.09;64.07;99356.41;4933890;28;101286;-82
2022/12/11 02:59:28;;;;;;;48.57;26.90;;;;;;;3.07;64.30;99358.19;4970085;28;98014;-81
2022/12/11 03:01:53;;;;;;;46.03;27.47;;;;;;;3.07;64.18;99358.19;4951802;28;97486;-82
2022/12/11 03:04:23;;;;;;;48.53;27.63;;;;;;;3.02;64.13;99349.63;4938810;28;97006;-82
2022/12/11 03:06:51;;;;;;;46.33;27.00;;;;;;;2.98;63.95;99348.84;4969894;28;100994;-82
2022/12/11 03:09:17;;;;;;;46.90;27.50;;;;;;;2.92;64.11;99342.03;4941606;28;101312;-81
2022/12/11 03:11:42;;;;;;;46.03;27.33;;;;;;;3.02;64.03;99366.03;4950911;28;97116;-82
2022/12/11 03:14:08;;;;;;;44.13;26.37;;;;;;;2.98;63.96;99360.94;4951482;28;97049;-82
2022/12/11 03:16:38;;;;;;;47.23;27.20;;;;;;;3.01;64.02;99372.09;4969852;28;101734;-82
2022/12/11 03:19:25;;;;;;;51.27;28.13;;;;;;;2.97;63.78;99365.28;4954058;28;101696;-82
2022/12/11 03:22:18;;;;;;;49.17;27.70;;;;;;;3.02;63.88;99367.78;4962937;28;97346;-83
2022/12/11 03:24:52;;;;;;;53.20;28.10;;;;;;;3.01;63.97;99366.91;4953737;28;97622;-82
2022/12/11 03:27:29;;;;;;;51.07;27.27;;;;;;;2.88;63.72;99339.50;4973189;28;97734;-83
2022/12/11 03:29:58;;;;;;;51.97;28.43;;;;;;;2.76;63.87;99324.19;4956360;28;99676;-82
2022/12/11 03:32:28;;;;;;;50.80;29.77;;;;;;;3.00;63.60;99378.19;4973885;28;97091;-83
2022/12/11 03:35:08;;;;;;;49.47;28.63;;;;;;;3.01;63.68;99373.84;4937744;28;97353;-83
2022/12/11 03:37:36;;;;;;;48.00;28.50;;;;;;;2.99;64.18;99368.69;4939849;28;101391;-83
2022/12/11 03:40:06;;;;;;;51.97;27.50;;;;;;;2.94;63.63;99362.75;4966078;28;101314;-81
2022/12/11 03:42:33;;;;;;;49.57;27.43;;;;;;;3.00;63.98;99367.81;4937607;28;97295;-82
2022/12/11 03:44:59;;;;;;;45.30;27.13;;;;;;;2.93;64.14;99364.47;4968947;28;97093;-82
2022/12/11 03:47:26;;;;;;;51.90;28.83;;;;;;;2.94;64.12;99360.16;4953447;28;101265;-83
2022/12/11 03:49:52;;;;;;;50.77;29.63;;;;;;;3.00;63.96;99370.41;4985544;28;101334;-82
2022/12/11 03:52:18;;;;;;;43.17;25.93;;;;;;;2.87;63.94;99349.03;4970293;28;96710;-83
2022/12/11 03:54:45;;;;;;;48.67;28.23;;;;;;;2.88;64.46;99357.66;4989562;28;96809;-82
2022/12/11 03:57:14;;;;;;;44.77;27.57;;;;;;;2.94;64.35;99365.34;4956511;28;97512;-82
2022/12/11 03:59:40;;;;;;;50.73;29.27;;;;;;;2.91;64.65;99345.50;4965625;28;98146;-81
2022/12/11 04:02:09;;;;;;;47.43;26.50;;;;;;;2.92;64.00;99354.13;4953853;28;96810;-83
2022/12/11 04:04:40;;;;;;;49.20;27.40;;;;;;;2.85;64.05;99337.84;4972594;28;97344;-82
2022/12/11 04:07:06;;;;;;;50.30;27.53;;;;;;;2.81;64.19;99323.22;4956998;28;98522;-82
2022/12/11 04:09:32;;;;;;;50.30;29.47;;;;;;;2.93;64.16;99346.31;4953930;28;100841;-82
2022/12/11 04:11:57;;;;;;;49.80;27.43;;;;;;;2.91;64.14;99349.84;4953302;28;97301;-82
2022/12/11 04:25:33;;;;;;;50.63;28.47;;;;;;;2.80;64.47;99323.25;4957360;28;96761;-83
2022/12/11 04:27:59;;;;;;;52.67;28.80;;;;;;;2.85;64.17;99332.66;4956137;28;101755;-82
2022/12/11 04:30:25;;;;;;;48.63;26.83;;;;;;;2.83;63.63;99333.56;4951142;28;97992;-83
2022/12/11 04:32:52;;;;;;;46.07;27.10;;;;;;;2.85;64.08;99330.06;4951468;28;97331;-82
2022/12/11 04:35:18;;;;;;;47.83;27.63;;;;;;;2.74;64.30;99310.41;4948814;28;97253;-82
2022/12/11 04:37:43;;;;;;;50.27;29.17;;;;;;;2.85;64.24;99331.78;4985953;28;100400;-82
2022/12/11 04:40:11;;;;;;;47.70;28.77;;;;;;;2.84;63.99;99327.50;4956319;28;100946;-82
2022/12/11 04:42:37;;;;;;;46.37;27.77;;;;;;;2.84;63.50;99328.34;4956547;28;96857;-82
2022/12/11 04:45:04;;;;;;;48.07;29.37;;;;;;;2.85;63.68;99327.47;4956952;28;96922;-82
2022/12/11 04:47:29;;;;;;;48.90;28.47;;;;;;;2.77;63.84;99323.31;4954935;28;101039;-82
2022/12/11 04:49:55;;;;;;;45.43;27.17;;;;;;;2.82;63.55;99326.66;4954668;28;102080;-82
2022/12/11 04:52:20;;;;;;;45.03;27.50;;;;;;;2.76;63.47;99326.78;4964790;28;97390;-82
2022/12/11 04:54:46;;;;;;;44.93;27.37;;;;;;;2.83;63.74;99337.00;4952611;28;96850;-82
2022/12/11 04:57:11;;;;;;;42.97;25.83;;;;;;;2.83;63.55;99333.56;4980410;28;101192;-81
2022/12/11 04:59:37;;;;;;;45.87;27.50;;;;;;;2.75;63.36;99319.88;4971261;28;98036;-81
2022/12/11 05:02:03;;;;;;;50.17;26.77;;;;;;;2.70;63.24;99307.00;4953076;28;96775;-82
2022/12/11 05:04:33;;;;;;;41.30;27.03;;;;;;;2.72;63.12;99316.47;4968549;28;97230;-82
2022/12/11 05:06:58;;;;;;;51.97;27.97;;;;;;;2.75;63.10;99323.31;4953233;28;101406;-82
2022/12/11 05:09:25;;;;;;;40.80;25.53;;;;;;;2.77;63.29;99318.13;4939002;28;101337;-81
2022/12/11 05:11:50;;;;;;;42.97;25.97;;;;;;;2.84;63.06;99319.72;4972071;28;96826;-82
2022/12/11 05:14:16;;;;;;;45.13;25.13;;;;;;;2.75;63.22;99318.16;4956326;28;97524;-82
2022/12/11 05:16:42;;;;;;;39.77;25.17;;;;;;;2.74;63.06;99307.81;4939010;28;101037;-81
2022/12/11 05:19:07;;;;;;;41.00;25.30;;;;;;;2.71;62.99;99307.00;4955702;28;98436;-82
2022/12/11 05:21:33;;;;;;;41.93;26.20;;;;;;;2.78;62.88;99314.66;4965919;28;97212;-81
2022/12/11 05:23:58;;;;;;;38.90;24.40;;;;;;;2.76;62.92;99306.03;4937447;28;97454;-82
2022/12/11 05:26:24;;;;;;;37.43;23.50;;;;;;;2.75;62.73;99309.53;4955564;28;97614;-82
2022/12/11 05:28:52;;;;;;;35.63;23.17;;;;;;;2.76;63.10;99312.06;4935260;28;101662;-82
2022/12/11 05:31:20;;;;;;;38.17;23.97;;;;;;;2.76;62.79;99308.63;4947771;28;96764;-81
2022/12/11 05:33:47;;;;;;;37.27;22.63;;;;;;;2.69;62.53;99313.06;4955008;28;96822;-82
2022/12/11 05:36:25;;;;;;;34.57;22.27;;;;;;;2.61;62.46;99284.69;4954357;28;101768;-81
2022/12/11 05:38:51;;;;;;;38.93;23.43;;;;;;;2.69;62.65;99300.97;4937757;28;101445;-82
2022/12/11 05:41:19;;;;;;;36.87;23.73;;;;;;;2.79;62.61;99306.81;4955068;28;96939;-82
2022/12/11 05:43:45;;;;;;;31.53;21.97;;;;;;;2.74;62.50;99308.69;4955141;28;96914;-82
2022/12/11 05:46:18;;;;;;;36.37;23.23;;;;;;;2.76;62.43;99311.22;4954138;28;99944;-81
2022/12/11 05:48:46;;;;;;;36.10;22.47;;;;;;;2.69;62.18;99300.97;4954099;28;100973;-81
2022/12/11 05:51:12;;;;;;;36.03;22.53;;;;;;;2.67;62.59;99283.72;4938932;28;97180;-82
2022/12/11 05:53:39;;;;;;;34.03;23.17;;;;;;;2.74;62.13;99306.09;4954370;28;97394;-82
2022/12/11 05:56:07;;;;;;;39.93;23.53;;;;;;;2.63;62.43;99293.31;4950913;28;101585;-81
2022/12/11 05:58:34;;;;;;;33.80;22.53;;;;;;;2.72;62.03;99307.84;4970146;28;101466;-82
2022/12/11 06:01:00;;;;;;;31.87;21.10;;;;;;;2.63;62.16;99290.72;4954407;28;97297;-82
2022/12/11 06:03:26;;;;;;;33.20;21.47;;;;;;;2.77;62.45;99307.78;4938350;28;97077;-82
2022/12/11 06:05:52;;;;;;;34.10;21.60;;;;;;;2.69;61.74;99305.31;4954301;28;101215;-81
2022/12/11 06:08:17;;;;;;;32.53;20.93;;;;;;;2.68;61.93;99308.78;4959277;28;101641;-81
2022/12/11 06:10:47;;;;;;;34.20;22.07;;;;;;;2.73;61.70;99317.31;4937204;28;96913;-82
2022/12/11 06:13:13;;;;;;;35.93;22.10;;;;;;;2.63;62.03;99308.84;4938585;28;97039;-82
2022/12/11 06:15:39;;;;;;;33.30;21.47;;;;;;;2.65;61.78;99327.84;4934956;28;100758;-81
2022/12/11 06:18:04;;;;;;;33.73;20.40;;;;;;;2.71;61.99;99325.13;4967777;28;100298;-82
2022/12/11 06:20:33;;;;;;;31.73;20.23;;;;;;;2.69;61.85;99328.63;4953383;28;97222;-83
2022/12/11 06:23:00;;;;;;;32.60;20.43;;;;;;;2.60;61.64;99318.44;4959204;28;96867;-82
2022/12/11 06:25:26;;;;;;;28.60;19.97;;;;;;;2.68;61.48;99326.94;4979892;28;101893;-82
2022/12/11 06:27:52;;;;;;;31.87;19.77;;;;;;;2.65;61.52;99324.41;4954044;28;101190;-82
2022/12/11 06:30:17;;;;;;;29.30;19.20;;;;;;;2.63;61.93;99328.75;4954105;28;96964;-83
2022/12/11 06:32:43;;;;;;;31.00;19.63;;;;;;;2.60;61.85;99331.38;4971600;28;96917;-82
2022/12/11 06:35:09;;;;;;;30.17;19.27;;;;;;;2.64;61.86;99351.16;4937945;28;101391;-82
2022/12/11 06:37:35;;;;;;;30.10;19.47;;;;;;;2.58;61.85;99344.34;4954524;28;101162;-82
2022/12/11 06:40:05;;;;;;;30.77;19.90;;;;;;;2.51;61.94;99328.97;4954959;28;97272;-82
2022/12/11 06:42:31;;;;;;;33.53;20.13;;;;;;;2.64;61.43;99353.75;4955011;28;96924;-82
2022/12/11 06:44:58;;;;;;;32.57;19.83;;;;;;;2.58;61.46;99344.34;4954807;28;98033;-82
2022/12/11 06:47:28;;;;;;;28.77;18.97;;;;;;;2.56;61.86;99342.66;4937340;28;101282;-82
2022/12/11 06:49:54;;;;;;;30.87;19.80;;;;;;;2.57;61.37;99340.06;4953036;28;98137;-82
2022/12/11 06:52:21;;;;;;;32.10;20.70;;;;;;;2.65;61.79;99345.13;4958185;28;97432;-82
2022/12/11 06:54:46;;;;;;;33.00;20.00;;;;;;;2.65;61.69;99355.50;4936915;28;101442;-82
2022/12/11 06:57:12;;;;;;;29.60;19.23;;;;;;;2.62;61.68;99352.94;4952041;28;101453;-82
2022/12/11 06:59:37;;;;;;;31.37;19.87;;;;;;;2.53;61.56;99333.22;4961380;28;96873;-82
2022/12/11 07:02:03;;;;;;;28.40;19.07;;;;;;;2.66;61.25;99363.22;4973406;28;97744;-82
2022/12/11 07:04:29;;;;;;;28.87;19.17;;;;;;;2.58;61.92;99359.03;4975702;28;97928;-82
2022/12/11 07:06:56;;;;;;;29.17;19.40;;;;;;;2.53;61.54;99342.72;4956908;28;101065;-84
2022/12/11 07:09:22;;;;;;;29.50;19.63;;;;;;;2.59;61.19;99363.34;4964515;28;97280;-82
2022/12/11 07:11:51;;;;;;;28.93;19.33;;;;;;;2.60;61.39;99360.72;4938140;28;96798;-82
2022/12/11 07:14:17;;;;;;;29.83;20.27;;;;;;;2.58;61.01;99354.72;4951066;28;97907;-83
2022/12/11 07:16:42;;;;;;;31.77;21.27;;;;;;;2.61;61.28;99357.25;4956199;28;100702;-82
2022/12/11 07:19:08;;;;;;;33.10;20.17;;;;;;;2.58;61.35;99353.88;4938077;28;98414;-82
2022/12/11 07:21:33;;;;;;;33.67;20.40;;;;;;;2.49;60.84;99344.50;4939852;28;96905;-82
2022/12/11 07:23:59;;;;;;;31.70;20.60;;;;;;;2.58;60.91;99364.22;4938556;28;101674;-83
2022/12/11 07:26:24;;;;;;;34.80;21.17;;;;;;;2.46;60.92;99348.00;4937126;28;100699;-82
2022/12/11 07:28:50;;;;;;;32.67;20.10;;;;;;;2.54;61.07;99354.81;4954642;28;97275;-83
2022/12/11 07:31:18;;;;;;;27.93;18.37;;;;;;;2.50;60.47;99351.38;4967005;28;97293;-82
2022/12/11 07:33:44;;;;;;;29.10;19.23;;;;;;;2.39;60.73;99337.78;4970396;28;100435;-82
2022/12/11 07:36:11;;;;;;;30.50;19.10;;;;;;;2.42;60.98;99343.75;4937627;28;101448;-82
2022/12/11 07:38:37;;;;;;;32.17;18.87;;;;;;;2.56;61.20;99363.38;4937519;28;97363;-82
2022/12/11 07:41:05;;;;;;;28.90;19.10;;;;;;;2.60;60.51;99367.66;4953402;28;97140;-82
2022/12/11 07:43:31;;;;;;;30.33;20.27;;;;;;;2.35;60.59;99325.75;4951784;28;97919;-83
2022/12/11 07:46:02;;;;;;;27.27;18.93;;;;;;;2.55;60.73;99354.78;4969476;28;97982;-81
2022/12/11 07:48:28;;;;;;;30.23;19.17;;;;;;;2.53;60.65;99353.97;4954227;28;97262;-82
2022/12/11 07:50:54;;;;;;;27.87;18.53;;;;;;;2.53;60.46;99350.50;4969248;28;97295;-83
2022/12/11 07:53:19;;;;;;;29.67;18.90;;;;;;;2.58;60.60;99359.91;4938449;28;101243;-82
2022/12/11 07:55:45;;;;;;;33.07;18.17;;;;;;;2.45;59.95;99343.72;4938625;28;101409;-82
2022/12/11 07:58:10;;;;;;;28.93;18.33;;;;;;;2.38;60.10;99341.25;4938390;28;97124;-82
2022/12/11 08:00:36;;;;;;;25.70;17.13;;;;;;;2.47;60.35;99357.50;4934937;28;97393;-81
2022/12/11 08:03:01;;;;;;;28.60;18.50;;;;;;;2.42;60.14;99348.94;4950793;28;101370;-82
2022/12/11 08:05:27;;;;;;;29.60;19.73;;;;;;;2.58;60.00;99366.81;4949737;28;101183;-83
2022/12/11 08:07:52;;;;;;;28.00;17.90;;;;;;;2.50;59.69;99361.75;4946819;28;97944;-83
2022/12/11 08:10:18;;;;;;;33.83;19.07;;;;;;;2.56;59.78;99373.75;4965016;28;96946;-82
2022/12/11 08:12:43;;;;;;;25.07;17.13;;;;;;;2.53;59.75;99371.22;4939909;28;101147;-82
2022/12/11 08:15:09;;;;;;;28.17;17.73;;;;;;;2.52;59.89;99361.75;4937874;28;101781;-82
2022/12/11 08:17:35;;;;;;;30.30;18.93;;;;;;;2.58;60.26;99367.66;4951717;28;97235;-82
2022/12/11 08:20:01;;;;;;;32.90;17.97;;;;;;;2.58;60.03;99364.22;4985225;28;97227;-82
2022/12/11 08:22:27;;;;;;;29.67;19.20;;;;;;;2.57;60.11;99367.72;4957145;28;101072;-81
2022/12/11 08:24:52;;;;;;;29.80;18.23;;;;;;;2.42;60.03;99338.59;4944536;28;101191;-85
2022/12/11 08:27:18;;;;;;;27.10;17.23;;;;;;;2.42;59.84;99340.31;4961442;28;97392;-84
2022/12/11 08:29:46;;;;;;;28.87;19.60;;;;;;;2.56;60.13;99366.88;4957996;28;97228;-82
2022/12/11 08:32:12;;;;;;;25.57;18.07;;;;;;;2.52;59.69;99361.75;4956149;28;98514;-81
2022/12/11 08:34:39;;;;;;;28.17;17.83;;;;;;;2.46;59.58;99341.97;4956051;28;98015;-81
2022/12/11 08:37:04;;;;;;;27.40;16.87;;;;;;;2.56;59.49;99360.81;4956062;28;98154;-84
2022/12/11 08:39:30;;;;;;;26.03;16.87;;;;;;;2.42;59.66;99338.59;4949767;28;97356;-82
2022/12/11 08:41:56;;;;;;;26.33;16.50;;;;;;;2.56;59.09;99359.09;4937557;28;101416;-79
2022/12/11 08:44:23;;;;;;;27.70;17.43;;;;;;;2.52;59.34;99357.41;4924764;28;99654;-77
2022/12/11 08:46:49;;;;;;;28.97;17.27;;;;;;;2.57;58.96;99358.19;4957304;28;97198;-80
2022/12/11 08:49:14;;;;;;;24.30;15.10;;;;;;;2.56;58.62;99361.69;4955005;28;97077;-83
2022/12/11 08:51:40;;;;;;;26.80;15.40;;;;;;;2.57;58.69;99357.34;4954213;28;101329;-81
2022/12/11 08:54:06;;;;;;;32.13;15.47;;;;;;;2.53;58.61;99358.25;4953228;28;101141;-79
2022/12/11 08:56:31;;;;;;;28.07;16.47;;;;;;;2.52;59.00;99351.38;4965765;28;97332;-79
2022/12/11 08:59:00;;;;;;;25.03;17.07;;;;;;;2.59;58.98;99372.00;4952359;28;97082;-79
2022/12/11 09:01:27;;;;;;;27.73;16.60;;;;;;;2.57;59.20;99372.91;4954778;28;101126;-82
2022/12/11 09:03:54;;;;;;;25.50;16.23;;;;;;;2.62;59.01;99373.69;4955103;28;101003;-82
2022/12/11 09:06:22;;;;;;;25.13;15.97;;;;;;;2.26;58.89;99322.41;4949673;28;97312;-80
2022/12/11 09:08:49;;;;;;;30.83;19.13;;;;;;;2.60;58.91;99378.88;4937115;28;97369;-81
2022/12/11 09:11:18;;;;;;;28.37;18.07;;;;;;;2.51;59.15;99347.94;4953921;28;101487;-81
2022/12/11 09:13:44;;;;;;;27.13;17.70;;;;;;;2.62;59.44;99360.72;4935903;28;101309;-81
2022/12/11 09:16:12;;;;;;;26.90;17.23;;;;;;;2.51;59.27;99347.09;4954297;28;96843;-81
2022/12/11 09:18:39;;;;;;;26.50;18.47;;;;;;;2.45;59.05;99328.16;4953274;28;96960;-81
2022/12/11 09:21:07;;;;;;;28.60;17.80;;;;;;;2.57;58.96;99345.25;4949871;28;101308;-81
2022/12/11 09:23:33;;;;;;;25.27;17.00;;;;;;;2.54;59.16;99341.84;4938995;28;101153;-82
2022/12/11 09:25:59;;;;;;;26.53;17.20;;;;;;;2.57;59.22;99341.81;4954762;28;96882;-81
2022/12/11 09:28:25;;;;;;;28.10;17.13;;;;;;;2.58;59.26;99349.53;4954982;28;97232;-80
2022/12/11 09:30:51;;;;;;;24.30;16.60;;;;;;;2.57;59.37;99337.47;4966810;28;100682;-81
2022/12/11 09:33:16;;;;;;;26.00;16.67;;;;;;;2.54;58.80;99331.50;4953991;28;100909;-85
2022/12/11 09:35:42;;;;;;;23.57;16.17;;;;;;;2.54;58.93;99332.34;4954642;28;96795;-86
2022/12/11 09:38:08;;;;;;;27.60;18.13;;;;;;;2.56;59.54;99328.00;4973648;28;97419;-86
2022/12/11 09:40:39;;;;;;;31.93;19.87;;;;;;;2.30;59.27;99291.28;4942106;28;101011;-84
2022/12/11 09:43:19;;;;;;;31.77;18.60;;;;;;;2.53;59.18;99327.16;4938459;28;101471;-85
2022/12/11 09:45:45;;;;;;;31.10;18.80;;;;;;;2.54;59.34;99319.38;4958823;28;96924;-85
2022/12/11 09:48:12;;;;;;;30.60;19.13;;;;;;;2.55;59.39;99318.50;4975260;28;97218;-86
2022/12/11 09:50:38;;;;;;;29.13;19.33;;;;;;;2.53;59.06;99309.03;4942383;28;100272;-82
2022/12/11 09:53:25;;;;;;;30.77;18.47;;;;;;;2.57;58.88;99321.06;4954378;28;101190;-84
2022/12/11 09:56:22;;;;;;;33.77;19.27;;;;;;;2.56;59.35;99312.44;4950679;28;97683;-89
2022/12/11 09:59:15;;;;;;;34.50;19.83;;;;;;;2.55;59.10;99310.72;4948819;28;96971;-86
2022/12/11 10:01:59;;;;;;;35.83;18.80;;;;;;;2.54;59.12;99309.03;4967819;28;100640;-84
2022/12/11 10:04:40;;;;;;;27.47;17.90;;;;;;;2.52;58.83;99302.16;4971184;28;100718;-85
2022/12/11 10:07:15;;;;;;;36.10;18.93;;;;;;;2.50;59.11;99307.34;4951133;28;97246;-84
2022/12/11 10:09:53;;;;;;;27.80;16.20;;;;;;;2.51;58.80;99303.06;4956307;28;96962;-84
2022/12/11 10:12:37;;;;;;;28.47;16.93;;;;;;;2.51;58.67;99301.31;4936827;28;100643;-84
2022/12/11 10:15:08;;;;;;;26.47;16.00;;;;;;;2.42;58.56;99283.34;5004881;28;100801;-84
2022/12/11 10:17:35;;;;;;;18.50;13.07;;;;;;;2.53;58.49;99296.09;4973168;28;97518;-85
2022/12/11 10:20:35;;;;;;;23.80;13.27;;;;;;;2.49;57.93;99282.34;4973561;28;97095;-84
2022/12/11 10:23:02;;;;;;;22.13;13.70;;;;;;;2.49;57.72;99278.00;4942082;28;101500;-84
2022/12/11 10:25:31;;;;;;;22.00;13.97;;;;;;;2.47;57.95;99274.59;4954843;28;101732;-77
2022/12/11 10:27:57;;;;;;;23.47;14.23;;;;;;;2.30;57.80;99236.91;4954404;28;96832;-80
2022/12/11 10:30:32;;;;;;;26.53;13.53;;;;;;;2.54;58.04;99279.69;4936193;28;96893;-81
2022/12/11 10:33:06;;;;;;;21.77;14.23;;;;;;;2.43;57.43;99256.53;4969516;28;100929;-79
2022/12/11 10:35:41;;;;;;;22.50;12.77;;;;;;;2.52;57.44;99282.28;4956531;28;101827;-79
2022/12/11 10:38:26;;;;;;;18.93;12.20;;;;;;;2.53;57.12;99278.81;4940291;28;96836;-78
2022/12/11 10:41:01;;;;;;;23.50;11.90;;;;;;;2.50;56.67;99278.84;4983831;28;97804;-79
2022/12/11 10:43:37;;;;;;;21.90;11.87;;;;;;;2.54;56.42;99277.09;4938073;28;101548;-79
2022/12/11 10:46:04;;;;;;;22.90;12.43;;;;;;;2.56;56.30;99277.88;4971844;28;97865;-79
2022/12/11 10:48:30;;;;;;;20.43;12.37;;;;;;;2.33;56.33;99242.03;4940106;28;96917;-79
2022/12/11 10:51:06;;;;;;;21.93;12.73;;;;;;;2.48;56.62;99268.53;4937613;28;97480;-79
2022/12/11 10:53:32;;;;;;;20.73;12.20;;;;;;;2.40;56.26;99252.28;4955712;28;102706;-80
2022/12/11 10:55:58;;;;;;;29.30;12.27;;;;;;;2.50;56.31;99260.72;4955677;28;101586;-80
2022/12/11 10:58:27;;;;;;;18.80;12.43;;;;;;;2.33;56.55;99242.91;4939310;28;98349;-79
2022/12/11 11:01:05;;;;;;;22.10;12.93;;;;;;;2.32;56.01;99243.78;4969944;28;97150;-80
2022/12/11 11:03:31;;;;;;;25.50;13.43;;;;;;;2.38;56.46;99235.03;4972926;28;101301;-79
2022/12/11 11:06:16;;;;;;;27.47;13.73;;;;;;;2.51;56.70;99254.69;4972903;28;97944;-79
2022/12/11 11:08:44;;;;;;;20.77;12.10;;;;;;;2.41;56.43;99251.38;4972492;28;97267;-80
2022/12/11 11:11:31;;;;;;;23.53;12.27;;;;;;;2.49;56.37;99246.06;4956419;28;96924;-79
2022/12/11 11:14:16;;;;;;;17.43;10.63;;;;;;;2.38;56.21;99224.69;4945233;28;101286;-81
2022/12/11 11:16:44;;;;;;;16.00;10.03;;;;;;;2.46;56.37;99246.97;4972300;28;97882;-81
2022/12/11 11:19:29;;;;;;;15.90;10.20;;;;;;;2.47;55.86;99238.34;4972851;28;97088;-81
2022/12/11 11:22:12;;;;;;;22.23;12.83;;;;;;;2.32;55.59;99212.69;4957323;28;96815;-80
2022/12/11 11:24:40;;;;;;;18.70;11.93;;;;;;;2.48;55.55;99231.41;4979292;28;100313;-85
2022/12/11 11:28:01;;;;;;;20.03;11.23;;;;;;;2.48;55.68;99232.25;4945403;28;101206;-84
2022/12/11 11:30:29;;;;;;;18.13;11.37;;;;;;;2.36;55.93;99209.19;4960471;28;96955;-80
2022/12/11 11:33:19;;;;;;;24.47;13.20;;;;;;;2.44;55.96;99224.56;4954721;28;97272;-79
2022/12/11 11:35:52;;;;;;;20.10;13.47;;;;;;;2.10;56.03;99168.22;4983949;28;101443;-80
2022/12/11 11:38:20;;;;;;;21.33;11.70;;;;;;;2.43;55.94;99226.31;4970904;28;101359;-80
2022/12/11 11:40:52;;;;;;;16.83;10.53;;;;;;;2.42;55.68;99219.44;4970338;28;97127;-85